Time;durP1;ratioP1;P1;durP2;ratioP2;P2;SDS_P1;SDS_P2;PMS_P1;PMS_P2;Temp;Humidity;BMP_temperature;BMP_pressure;BME280_temperature;BME280_humidity;BME280_pressure;Samples;Min_cycle;Max_cycle;Signal;HPM_P1;HPM_P2
2022/04/10 00:01:29;;;;;;;32.38;5.00;;;3.50;99.90;;;;;;5033687;28;20045;-66
2022/04/10 00:03:56;;;;;;;27.00;5.20;;;3.50;99.90;;;;;;5033441;28;20060;-66
2022/04/10 00:06:23;;;;;;;30.25;3.80;;;3.50;99.90;;;;;;5033339;28;20029;-66
2022/04/10 00:08:48;;;;;;;22.27;2.97;;;3.50;99.90;;;;;;5033447;28;20021;-66
2022/04/10 00:11:14;;;;;;;30.30;3.53;;;3.50;99.90;;;;;;5033587;28;20037;-66
2022/04/10 00:13:40;;;;;;;22.95;3.42;;;3.40;99.90;;;;;;5033621;28;20026;-66
2022/04/10 00:16:05;;;;;;;22.02;3.30;;;3.30;99.90;;;;;;5033313;28;20389;-66
2022/04/10 00:18:31;;;;;;;27.52;3.72;;;3.30;99.90;;;;;;5033230;28;20022;-66
2022/04/10 00:20:57;;;;;;;23.63;3.38;;;3.30;99.90;;;;;;5033265;28;20125;-66
2022/04/10 00:23:22;;;;;;;26.38;3.42;;;3.30;99.90;;;;;;5033411;28;20029;-66
2022/04/10 00:25:48;;;;;;;36.47;5.00;;;3.40;99.90;;;;;;5033203;28;20026;-66
2022/04/10 00:28:13;;;;;;;33.53;4.07;;;3.50;99.90;;;;;;5033226;28;20442;-67
2022/04/10 00:30:39;;;;;;;25.48;5.55;;;3.60;99.90;;;;;;5033357;28;20078;-66
2022/04/10 00:33:05;;;;;;;21.23;3.22;;;3.60;99.90;;;;;;5036154;28;20029;-66
2022/04/10 00:35:30;;;;;;;41.95;4.60;;;3.70;99.90;;;;;;5037218;28;20022;-66
2022/04/10 00:37:56;;;;;;;26.23;4.25;;;3.80;99.90;;;;;;5037808;28;20026;-66
2022/04/10 00:40:22;;;;;;;21.05;3.00;;;3.60;99.90;;;;;;5037100;28;20032;-66
2022/04/10 00:42:51;;;;;;;25.20;3.80;;;3.40;99.90;;;;;;5037587;28;20034;-66
2022/04/10 00:45:17;;;;;;;22.42;2.85;;;3.20;99.90;;;;;;5036988;28;20040;-66
2022/04/10 00:47:45;;;;;;;12.40;2.58;;;3.00;99.90;;;;;;5037228;28;20374;-66
2022/04/10 00:50:12;;;;;;;16.90;2.45;;;3.00;99.90;;;;;;5036851;28;20013;-66
2022/04/10 00:52:40;;;;;;;22.77;2.80;;;2.80;99.90;;;;;;5037147;28;20075;-66
2022/04/10 00:55:06;;;;;;;12.27;2.20;;;2.70;99.90;;;;;;5036805;28;20025;-66
2022/04/10 00:57:32;;;;;;;26.02;2.83;;;2.60;99.90;;;;;;5037319;28;20104;-66
2022/04/10 00:59:58;;;;;;;18.40;2.13;;;2.40;99.90;;;;;;5036647;28;20525;-66
2022/04/10 01:02:23;;;;;;;31.38;3.92;;;2.40;99.90;;;;;;5036643;28;20040;-66
2022/04/10 01:04:49;;;;;;;21.65;3.20;;;2.30;99.90;;;;;;5036586;28;20026;-66
2022/04/10 01:07:16;;;;;;;23.05;2.67;;;2.30;99.90;;;;;;5036854;28;20025;-66
2022/04/10 01:09:42;;;;;;;40.78;4.38;;;2.20;99.90;;;;;;5036403;28;20045;-66
2022/04/10 01:12:09;;;;;;;22.10;3.38;;;2.20;99.90;;;;;;5036487;28;20608;-66
2022/04/10 01:14:36;;;;;;;48.80;5.10;;;2.20;99.90;;;;;;5036405;28;20033;-66
2022/04/10 01:17:02;;;;;;;34.78;5.47;;;2.20;99.90;;;;;;5036427;28;20026;-66
2022/04/10 01:19:28;;;;;;;35.47;4.75;;;2.20;99.90;;;;;;5018616;28;20045;-66
2022/04/10 01:21:59;;;;;;;29.83;3.95;;;2.20;99.90;;;;;;5036334;28;20033;-66
2022/04/10 01:24:25;;;;;;;35.53;4.32;;;2.30;99.90;;;;;;5036685;28;20067;-66
2022/04/10 01:26:51;;;;;;;33.10;4.97;;;2.40;99.90;;;;;;5018614;28;20386;-66
2022/04/10 01:29:16;;;;;;;36.47;4.60;;;2.40;99.90;;;;;;5036295;28;20079;-66
2022/04/10 01:31:44;;;;;;;39.50;5.00;;;2.40;99.90;;;;;;5036134;28;20429;-66
2022/04/10 01:34:13;;;;;;;44.00;4.90;;;2.40;99.90;;;;;;5018449;28;20540;-66
2022/04/10 01:36:40;;;;;;;42.63;5.10;;;2.40;99.90;;;;;;5036597;28;20492;-66
2022/04/10 01:39:07;;;;;;;35.33;5.35;;;2.50;99.90;;;;;;5035877;28;20036;-66
2022/04/10 01:41:36;;;;;;;51.45;5.30;;;2.50;99.90;;;;;;5036211;28;20036;-66
2022/04/10 01:44:05;;;;;;;35.03;5.18;;;2.50;99.90;;;;;;5035572;28;20496;-66
2022/04/10 01:46:32;;;;;;;40.65;5.90;;;2.60;99.90;;;;;;5035866;28;20079;-66
2022/04/10 01:48:59;;;;;;;44.33;6.25;;;2.60;99.90;;;;;;5035739;28;20112;-66
2022/04/10 01:51:25;;;;;;;49.15;5.28;;;2.60;99.90;;;;;;5036016;28;20187;-66
2022/04/10 01:53:52;;;;;;;40.28;5.90;;;2.70;99.90;;;;;;5035728;28;20498;-66
2022/04/10 01:56:17;;;;;;;33.88;4.85;;;2.60;99.90;;;;;;5035668;28;20025;-66
2022/04/10 01:58:45;;;;;;;38.85;5.95;;;2.80;99.90;;;;;;5035578;28;20036;-66
2022/04/10 02:01:16;;;;;;;37.25;6.53;;;2.80;99.90;;;;;;5035632;28;20029;-66
2022/04/10 02:03:42;;;;;;;35.40;4.35;;;2.80;99.90;;;;;;5035802;28;20033;-66
2022/04/10 02:06:10;;;;;;;43.53;7.07;;;2.80;99.90;;;;;;5035517;28;20021;-66
2022/04/10 02:08:36;;;;;;;49.83;6.32;;;2.90;99.90;;;;;;5035613;28;20535;-66
2022/04/10 02:11:16;;;;;;;37.63;4.70;;;2.90;99.90;;;;;;5035319;28;20116;-66
2022/04/10 02:13:42;;;;;;;51.97;7.13;;;3.00;99.90;;;;;;5035439;28;20036;-66
2022/04/10 02:16:12;;;;;;;45.78;6.43;;;3.10;99.90;;;;;;5035334;28;20041;-66
2022/04/10 02:18:37;;;;;;;38.05;5.68;;;3.10;99.90;;;;;;5035198;28;20024;-66
2022/04/10 02:21:03;;;;;;;44.17;6.53;;;3.20;99.90;;;;;;5035465;28;20017;-66
2022/04/10 02:23:29;;;;;;;45.15;5.20;;;3.30;99.90;;;;;;5035367;28;20103;-66
2022/04/10 02:25:55;;;;;;;39.00;5.80;;;3.40;99.90;;;;;;5035150;28;20033;-66
2022/04/10 02:28:21;;;;;;;32.50;4.50;;;3.30;99.90;;;;;;5035047;28;20026;-66
2022/04/10 02:30:46;;;;;;;21.27;3.63;;;3.20;99.90;;;;;;5034966;28;20057;-66
2022/04/10 02:33:12;;;;;;;23.77;3.75;;;3.00;99.90;;;;;;5034994;28;20064;-66
2022/04/10 02:35:37;;;;;;;27.00;4.55;;;3.00;99.90;;;;;;5035205;28;20112;-66
2022/04/10 02:38:03;;;;;;;21.80;3.28;;;2.90;99.90;;;;;;5034917;28;20022;-66
2022/04/10 02:40:29;;;;;;;31.25;3.75;;;2.90;99.90;;;;;;5035033;28;20029;-66
2022/04/10 02:42:54;;;;;;;18.35;2.75;;;2.80;99.90;;;;;;5034797;28;20029;-66
2022/04/10 02:45:20;;;;;;;12.82;2.72;;;2.70;99.90;;;;;;5034663;28;20037;-66
2022/04/10 02:47:45;;;;;;;25.20;4.45;;;2.60;99.90;;;;;;5034693;28;20096;-66
2022/04/10 02:50:13;;;;;;;18.73;2.95;;;2.60;99.90;;;;;;5034603;28;20024;-66
2022/04/10 02:52:39;;;;;;;19.80;3.85;;;2.50;99.90;;;;;;5034658;28;20025;-66
2022/04/10 02:55:05;;;;;;;13.93;2.70;;;2.50;99.90;;;;;;5033924;28;20025;-66
2022/04/10 02:57:31;;;;;;;11.88;2.65;;;2.40;99.90;;;;;;5016868;28;20028;-66
2022/04/10 02:59:56;;;;;;;18.38;3.50;;;2.40;99.90;;;;;;5034407;28;20421;-66
2022/04/10 03:02:22;;;;;;;21.15;3.13;;;2.40;99.90;;;;;;5034711;28;20474;-66
2022/04/10 03:04:47;;;;;;;19.50;3.45;;;2.40;99.90;;;;;;5034592;28;20402;-66
2022/04/10 03:07:13;;;;;;;27.83;5.05;;;2.40;99.90;;;;;;5034372;28;20051;-66
2022/04/10 03:09:38;;;;;;;24.05;3.80;;;2.40;99.90;;;;;;5034111;28;20037;-66
2022/04/10 03:12:04;;;;;;;23.45;3.53;;;2.40;99.90;;;;;;5034232;28;20030;-66
2022/04/10 03:14:30;;;;;;;24.20;3.47;;;2.40;99.90;;;;;;5034214;28;20026;-66
2022/04/10 03:16:57;;;;;;;27.67;4.07;;;2.40;99.90;;;;;;5034671;28;20029;-66
2022/04/10 03:19:22;;;;;;;29.58;5.32;;;2.30;99.90;;;;;;5034394;28;20486;-66
2022/04/10 03:21:48;;;;;;;24.73;4.13;;;2.30;99.90;;;;;;5034341;28;20032;-66
2022/04/10 03:24:14;;;;;;;24.13;4.35;;;2.40;99.90;;;;;;5033946;28;20466;-66
2022/04/10 03:26:39;;;;;;;29.40;5.47;;;2.40;99.90;;;;;;5034182;28;20021;-66
2022/04/10 03:29:05;;;;;;;26.85;3.88;;;2.30;99.90;;;;;;5033915;28;20025;-66
2022/04/10 03:31:30;;;;;;;31.45;4.63;;;2.30;99.90;;;;;;5033916;28;20427;-66
2022/04/10 03:33:56;;;;;;;32.20;6.45;;;2.30;99.90;;;;;;5033845;28;20033;-66
2022/04/10 03:36:21;;;;;;;28.40;4.13;;;2.20;99.90;;;;;;5034053;28;20026;-66
2022/04/10 03:38:47;;;;;;;24.90;3.58;;;2.30;99.90;;;;;;5033979;28;20478;-66
2022/04/10 03:41:12;;;;;;;26.00;4.90;;;2.30;99.90;;;;;;5034053;28;20045;-66
2022/04/10 03:43:38;;;;;;;42.35;6.97;;;2.30;99.90;;;;;;5033633;28;20033;-66
2022/04/10 03:46:05;;;;;;;26.10;3.97;;;2.30;99.90;;;;;;5033497;28;20022;-67
2022/04/10 03:48:31;;;;;;;35.72;4.63;;;2.30;99.90;;;;;;5033699;28;20014;-66
2022/04/10 03:50:56;;;;;;;39.70;4.35;;;2.30;99.90;;;;;;5033685;28;20497;-66
2022/04/10 03:53:22;;;;;;;39.30;6.22;;;2.30;99.90;;;;;;5034131;28;20029;-66
2022/04/10 03:55:47;;;;;;;38.00;5.55;;;2.30;99.90;;;;;;5033530;28;20056;-66
2022/04/10 03:58:13;;;;;;;25.75;4.32;;;2.30;99.90;;;;;;5033501;28;20033;-66
2022/04/10 04:00:40;;;;;;;33.25;5.13;;;2.40;99.90;;;;;;5033407;28;20108;-66
2022/04/10 04:03:06;;;;;;;39.03;5.68;;;2.30;99.90;;;;;;5033351;28;20029;-66
2022/04/10 04:05:31;;;;;;;30.90;5.38;;;2.30;99.90;;;;;;5033423;28;20029;-66
2022/04/10 04:07:57;;;;;;;24.70;4.07;;;2.30;99.90;;;;;;5033426;28;20108;-66
2022/04/10 04:10:22;;;;;;;30.45;6.80;;;2.30;99.90;;;;;;5033222;28;20033;-66
2022/04/10 04:12:48;;;;;;;38.42;5.05;;;2.30;99.90;;;;;;5033372;28;20101;-66
2022/04/10 04:15:14;;;;;;;28.52;5.18;;;2.40;99.90;;;;;;5033337;28;20037;-66
2022/04/10 04:17:39;;;;;;;31.08;3.92;;;2.50;99.90;;;;;;5033301;28;20546;-66
2022/04/10 04:20:06;;;;;;;29.67;4.72;;;2.50;99.90;;;;;;5033271;28;20029;-66
2022/04/10 04:22:33;;;;;;;34.30;3.65;;;2.60;99.90;;;;;;5033489;28;20366;-66
2022/04/10 04:24:59;;;;;;;31.83;4.43;;;2.70;99.90;;;;;;5033434;28;20033;-66
2022/04/10 04:27:25;;;;;;;40.35;4.70;;;2.80;99.90;;;;;;5033462;28;20212;-66
2022/04/10 04:29:50;;;;;;;25.27;4.90;;;2.90;99.90;;;;;;5033649;28;20021;-66
2022/04/10 04:32:16;;;;;;;34.50;4.63;;;3.00;99.90;;;;;;5033379;28;20028;-66
2022/04/10 04:34:41;;;;;;;27.58;4.75;;;3.00;99.90;;;;;;5033682;28;20040;-66
2022/04/10 04:37:09;;;;;;;23.40;3.83;;;3.00;99.90;;;;;;5033638;28;20032;-66
2022/04/10 04:39:35;;;;;;;26.30;3.72;;;3.00;99.90;;;;;;5033022;28;20025;-66
2022/04/10 04:42:00;;;;;;;24.23;3.92;;;2.90;99.90;;;;;;5033352;28;20029;-66
2022/04/10 04:44:26;;;;;;;23.80;3.08;;;2.80;99.90;;;;;;5033552;28;20029;-66
2022/04/10 04:46:52;;;;;;;17.85;3.92;;;2.80;99.90;;;;;;5033330;28;20017;-66
2022/04/10 04:49:17;;;;;;;22.40;3.78;;;2.70;99.90;;;;;;5032916;28;20025;-67
2022/04/10 04:51:43;;;;;;;15.23;3.90;;;2.70;99.90;;;;;;5033224;28;20026;-66
2022/04/10 04:54:08;;;;;;;20.13;3.05;;;2.70;99.90;;;;;;5033242;28;20101;-66
2022/04/10 04:56:35;;;;;;;15.05;3.10;;;2.60;99.90;;;;;;5032945;28;20025;-66
2022/04/10 04:59:00;;;;;;;21.80;3.10;;;2.70;99.90;;;;;;5032841;28;20071;-66
2022/04/10 05:01:26;;;;;;;20.48;3.63;;;2.70;99.90;;;;;;5033182;28;20424;-66
2022/04/10 05:03:52;;;;;;;28.52;5.07;;;2.70;99.90;;;;;;5032858;28;20036;-67
2022/04/10 05:06:17;;;;;;;23.13;3.30;;;2.70;99.90;;;;;;5033519;28;20022;-66
2022/04/10 05:08:46;;;;;;;14.15;3.28;;;2.70;99.90;;;;;;5032791;28;20056;-66
2022/04/10 05:11:15;;;;;;;25.58;4.20;;;2.70;99.90;;;;;;5033093;28;20148;-66
2022/04/10 05:13:41;;;;;;;32.85;4.32;;;2.70;99.90;;;;;;5033258;28;20026;-69
2022/04/10 05:16:07;;;;;;;27.85;3.85;;;2.70;99.90;;;;;;5032722;28;20029;-69
2022/04/10 05:18:33;;;;;;;20.70;3.75;;;2.80;99.90;;;;;;5034527;28;20029;-69
2022/04/10 05:20:59;;;;;;;30.45;4.85;;;2.90;99.90;;;;;;5036368;28;20494;-69
2022/04/10 05:23:24;;;;;;;27.90;3.58;;;2.90;99.90;;;;;;5036540;28;20471;-69
2022/04/10 05:25:50;;;;;;;27.70;4.43;;;3.00;99.90;;;;;;5036290;28;20021;-69
2022/04/10 05:28:16;;;;;;;30.90;4.68;;;2.90;99.90;;;;;;5036477;28;20465;-69
2022/04/10 05:30:42;;;;;;;32.53;5.82;;;2.90;99.90;;;;;;5036097;28;20025;-69
2022/04/10 05:33:08;;;;;;;25.95;4.65;;;2.90;99.90;;;;;;5036234;28;20025;-69
2022/04/10 05:35:34;;;;;;;34.67;4.93;;;2.90;99.90;;;;;;5036365;28;20095;-69
2022/04/10 05:38:00;;;;;;;35.17;5.43;;;2.90;99.90;;;;;;5036332;28;20462;-69
2022/04/10 05:40:25;;;;;;;43.70;7.43;;;3.10;99.90;;;;;;5035917;28;20022;-69
2022/04/10 05:42:51;;;;;;;50.88;5.45;;;3.20;99.90;;;;;;5035958;28;20100;-69
2022/04/10 05:45:17;;;;;;;32.63;5.10;;;3.40;99.90;;;;;;5035877;28;20072;-69
2022/04/10 05:47:43;;;;;;;28.25;5.75;;;3.70;99.90;;;;;;5035874;28;20021;-69
2022/04/10 05:50:10;;;;;;;27.63;5.35;;;3.70;99.90;;;;;;5035855;28;20018;-69
2022/04/10 05:52:44;;;;;;;24.92;4.20;;;3.60;99.90;;;;;;5035799;28;20022;-69
2022/04/10 05:55:12;;;;;;;22.15;2.83;;;3.30;99.90;;;;;;5035719;28;20022;-69
2022/04/10 05:57:38;;;;;;;27.77;4.07;;;2.80;99.90;;;;;;5035999;28;20037;-69
2022/04/10 06:00:06;;;;;;;18.70;3.03;;;2.40;99.90;;;;;;5035640;28;20032;-68
2022/04/10 06:02:32;;;;;;;14.90;3.08;;;2.10;99.90;;;;;;5035972;28;20417;-68
2022/04/10 06:04:57;;;;;;;41.10;9.70;;;1.90;99.90;;;;;;5035755;28;20075;-69
2022/04/10 06:07:23;;;;;;;21.83;3.97;;;1.90;99.90;;;;;;5035566;28;20022;-69
2022/04/10 06:09:49;;;;;;;28.73;5.53;;;1.90;99.90;;;;;;5035489;28;20083;-69
2022/04/10 06:12:14;;;;;;;37.40;6.18;;;2.00;99.90;;;;;;5036064;28;20073;-69
2022/04/10 06:14:40;;;;;;;33.78;5.18;;;2.00;99.90;;;;;;5017730;28;20076;-69
2022/04/10 06:17:07;;;;;;;12.77;3.40;;;2.10;99.90;;;;;;5035606;28;20029;-69
2022/04/10 06:19:33;;;;;;;28.98;3.97;;;2.10;99.90;;;;;;5035254;28;20116;-70
2022/04/10 06:21:59;;;;;;;28.77;4.28;;;2.20;99.90;;;;;;5035265;28;20033;-70
2022/04/10 06:24:27;;;;;;;21.85;3.63;;;2.50;99.90;;;;;;5035100;28;20052;-69
2022/04/10 06:26:53;;;;;;;30.33;3.38;;;2.80;99.90;;;;;;5035140;28;20036;-69
2022/04/10 06:29:18;;;;;;;21.20;3.20;;;3.00;99.90;;;;;;5034174;28;20030;-70
2022/04/10 06:31:44;;;;;;;20.95;3.00;;;3.00;99.90;;;;;;5035003;28;20083;-69
2022/04/10 06:34:10;;;;;;;16.15;3.15;;;2.90;99.90;;;;;;5035078;28;20563;-70
2022/04/10 06:36:35;;;;;;;9.00;2.42;;;2.70;99.90;;;;;;5034963;28;20389;-70
2022/04/10 06:39:01;;;;;;;12.65;4.75;;;2.40;99.90;;;;;;5034851;28;20090;-70
2022/04/10 06:41:26;;;;;;;25.83;2.38;;;2.30;99.90;;;;;;5034823;28;20049;-70
2022/04/10 06:43:52;;;;;;;24.08;3.28;;;2.40;99.90;;;;;;5034973;28;20029;-70
2022/04/10 06:46:17;;;;;;;21.67;2.90;;;2.70;99.90;;;;;;5034772;28;20482;-70
2022/04/10 06:48:43;;;;;;;16.38;3.38;;;2.90;99.90;;;;;;5034649;28;20032;-70
2022/04/10 06:51:08;;;;;;;35.38;3.78;;;3.00;99.90;;;;;;5034634;28;20048;-70
2022/04/10 06:53:34;;;;;;;36.13;5.45;;;3.30;99.90;;;;;;5034764;28;20034;-70
2022/04/10 06:56:00;;;;;;;36.58;4.20;;;3.50;99.90;;;;;;5034569;28;20021;-70
2022/04/10 06:58:25;;;;;;;20.65;4.38;;;3.70;99.90;;;;;;5034512;28;20486;-70
2022/04/10 07:00:52;;;;;;;44.50;4.68;;;3.80;99.90;;;;;;5034487;28;20108;-70
2022/04/10 07:03:17;;;;;;;37.13;4.40;;;3.90;99.90;;;;;;5034373;28;20025;-70
2022/04/10 07:05:44;;;;;;;16.65;3.60;;;4.00;99.90;;;;;;5034411;28;20501;-70
2022/04/10 07:08:10;;;;;;;27.08;3.75;;;4.00;99.90;;;;;;5034346;28;20421;-70
2022/04/10 07:10:38;;;;;;;29.30;3.85;;;4.00;99.90;;;;;;5034128;28;20053;-70
2022/04/10 07:13:04;;;;;;;23.70;3.90;;;4.10;99.90;;;;;;5034262;28;20116;-70
2022/04/10 07:15:30;;;;;;;26.55;4.25;;;4.20;99.90;;;;;;5034219;28;20029;-70
2022/04/10 07:17:56;;;;;;;20.50;3.45;;;4.40;99.90;;;;;;5034228;28;20029;-70
2022/04/10 07:20:23;;;;;;;33.60;4.22;;;4.50;99.90;;;;;;5034082;28;20025;-70
2022/04/10 07:25:32;;;;;;;;;;;4.80;99.90;;;;;;5034523;28;20060;-70
2022/04/10 07:27:58;;;;;;;31.77;4.30;;;4.90;99.90;;;;;;5034027;28;19948;-70
2022/04/10 07:30:24;;;;;;;43.60;6.25;;;5.00;99.90;;;;;;5033917;28;20033;-70
2022/04/10 07:32:57;;;;;;;28.85;4.35;;;5.20;99.90;;;;;;5033925;28;20021;-70
2022/04/10 07:35:24;;;;;;;34.03;4.72;;;5.20;99.90;;;;;;5033926;28;20029;-70
2022/04/10 07:37:50;;;;;;;33.75;5.25;;;5.10;99.90;;;;;;5034192;28;20045;-70
2022/04/10 07:40:19;;;;;;;35.72;4.72;;;5.10;99.90;;;;;;5033513;28;20124;-70
2022/04/10 07:42:45;;;;;;;32.25;4.93;;;5.10;99.90;;;;;;5033774;28;20028;-70
2022/04/10 07:47:25;;;;;;;30.63;4.30;;;4.60;99.90;;;;;;5033636;28;20021;-70
2022/04/10 07:48:01;;;;;;;17.27;3.17;;;4.20;99.90;;;;;;5033961;28;20029;-70
2022/04/10 07:50:26;;;;;;;16.10;3.80;;;4.00;99.90;;;;;;5034172;28;20422;-70
2022/04/10 07:52:52;;;;;;;30.27;3.83;;;3.90;99.90;;;;;;5033645;28;20109;-70
2022/04/10 07:55:18;;;;;;;32.50;3.42;;;3.80;99.90;;;;;;5034097;28;20493;-70
2022/04/10 07:57:44;;;;;;;33.40;3.90;;;4.00;99.90;;;;;;5034078;28;20489;-70
2022/04/10 08:00:11;;;;;;;26.23;3.67;;;4.20;99.90;;;;;;5033459;28;20437;-70
2022/04/10 08:02:38;;;;;;;18.77;3.72;;;4.50;99.90;;;;;;5033512;28;20509;-70
2022/04/10 08:05:04;;;;;;;27.85;4.97;;;4.90;99.90;;;;;;5033881;28;20032;-70
2022/04/10 08:07:30;;;;;;;18.02;3.78;;;5.30;99.90;;;;;;5033616;28;20021;-70
2022/04/10 08:09:55;;;;;;;22.10;3.42;;;5.90;99.90;;;;;;5033148;28;20124;-70
2022/04/10 08:12:21;;;;;;;13.18;2.88;;;5.80;99.90;;;;;;5033300;28;20025;-70
2022/04/10 08:14:48;;;;;;;19.02;3.17;;;5.80;99.90;;;;;;5015618;28;20018;-70
2022/04/10 08:17:14;;;;;;;23.85;3.53;;;5.50;99.90;;;;;;5033292;28;20520;-70
2022/04/10 08:19:40;;;;;;;14.80;2.83;;;5.40;99.90;;;;;;5033156;28;20033;-69
2022/04/10 08:22:06;;;;;;;17.55;3.60;;;5.40;99.90;;;;;;5033146;28;20037;-69
2022/04/10 08:24:32;;;;;;;18.02;2.95;;;5.80;99.90;;;;;;5033189;28;20022;-70
2022/04/10 08:26:59;;;;;;;15.57;2.42;;;5.80;99.90;;;;;;5033443;28;20029;-70
2022/04/10 08:29:25;;;;;;;12.82;1.90;;;5.80;99.90;;;;;;5033134;28;20025;-69
2022/04/10 08:31:51;;;;;;;6.60;1.70;;;4.50;99.90;;;;;;5033478;28;20025;-69
2022/04/10 08:34:16;;;;;;;9.77;1.73;;;3.70;99.90;;;;;;5033164;28;20397;-69
2022/04/10 08:36:42;;;;;;;13.05;1.80;;;3.40;99.90;;;;;;5033439;28;20033;-69
2022/04/10 08:39:08;;;;;;;19.15;2.85;;;3.60;99.90;;;;;;5033134;28;20083;-69
2022/04/10 08:41:35;;;;;;;27.60;4.47;;;4.00;99.90;;;;;;5033110;28;20470;-70
2022/04/10 08:44:02;;;;;;;31.20;4.00;;;4.40;99.90;;;;;;5033010;28;20421;-70
2022/04/10 08:46:29;;;;;;;24.85;4.10;;;4.90;99.90;;;;;;5032982;28;20018;-69
2022/04/10 08:48:55;;;;;;;19.73;3.25;;;5.20;99.90;;;;;;5032980;28;20052;-69
2022/04/10 08:51:24;;;;;;;18.58;3.15;;;5.50;99.90;;;;;;5032997;28;20029;-69
2022/04/10 08:53:50;;;;;;;29.88;4.78;;;5.70;99.90;;;;;;5035453;28;20029;-69
2022/04/10 08:56:15;;;;;;;16.27;3.25;;;5.90;99.90;;;;;;5036814;28;20029;-70
2022/04/10 08:58:41;;;;;;;27.55;4.22;;;6.10;99.90;;;;;;5037011;28;20371;-69
2022/04/10 09:01:11;;;;;;;24.75;3.92;;;6.30;99.90;;;;;;5036757;28;20494;-69
2022/04/10 09:03:37;;;;;;;17.75;2.80;;;6.20;99.90;;;;;;5036627;28;20028;-69
2022/04/10 09:06:10;;;;;;;22.85;4.50;;;6.30;99.90;;;;;;5036706;28;20036;-69
2022/04/10 09:08:35;;;;;;;29.60;3.97;;;6.30;99.90;;;;;;5037104;28;20041;-69
2022/04/10 09:11:06;;;;;;;19.38;3.38;;;6.30;99.90;;;;;;5036492;28;20029;-70
2022/04/10 09:13:33;;;;;;;24.58;3.58;;;6.50;99.90;;;;;;5036588;28;20490;-69
2022/04/10 09:16:16;;;;;;;20.17;3.58;;;6.50;99.90;;;;;;5036494;28;20029;-69
2022/04/10 09:18:57;;;;;;;29.20;3.60;;;6.70;99.90;;;;;;5036396;28;20490;-69
2022/04/10 09:21:29;;;;;;;25.02;3.30;;;6.70;99.90;;;;;;5036681;28;20021;-69
2022/04/10 09:24:05;;;;;;;22.98;3.03;;;7.10;99.90;;;;;;5036318;28;20025;-69
2022/04/10 09:26:50;;;;;;;22.00;3.80;;;7.30;99.90;;;;;;5036303;28;20436;-69
2022/04/10 09:29:21;;;;;;;12.57;2.67;;;7.20;99.90;;;;;;5036182;28;20037;-69
2022/04/10 09:31:47;;;;;;;20.00;2.53;;;7.10;99.90;;;;;;5036230;28;20020;-69
2022/04/10 09:34:18;;;;;;;17.38;2.78;;;6.80;99.90;;;;;;5036423;28;20052;-70
2022/04/10 09:36:46;;;;;;;11.30;1.80;;;6.40;99.90;;;;;;5036030;28;20605;-69
2022/04/10 09:39:31;;;;;;;6.80;2.05;;;6.20;99.90;;;;;;5035911;28;20026;-68
2022/04/10 09:42:07;;;;;;;21.20;3.47;;;6.10;99.90;;;;;;5036019;28;20033;-69
2022/04/10 09:44:38;;;;;;;17.48;2.28;;;6.00;99.90;;;;;;5036493;28;20017;-69
2022/04/10 09:47:06;;;;;;;19.40;3.47;;;6.10;99.90;;;;;;5018366;28;20029;-69
2022/04/10 09:49:41;;;;;;;14.88;2.95;;;6.10;99.90;;;;;;5035815;28;20041;-69
2022/04/10 09:52:09;;;;;;;26.27;2.00;;;6.30;99.90;;;;;;5035889;28;20022;-69
2022/04/10 09:54:37;;;;;;;11.90;2.15;;;6.30;99.90;;;;;;5035820;28;20032;-69
2022/04/10 09:57:10;;;;;;;18.50;3.25;;;6.30;99.90;;;;;;5035774;28;20393;-70
2022/04/10 09:59:38;;;;;;;24.17;3.88;;;6.60;99.90;;;;;;5017940;28;20026;-69
2022/04/10 10:02:06;;;;;;;25.52;3.40;;;6.70;99.90;;;;;;5035930;28;20029;-69
2022/04/10 10:04:34;;;;;;;29.88;4.28;;;7.00;99.90;;;;;;5035442;28;20021;-70
2022/04/10 10:07:08;;;;;;;15.95;2.92;;;7.10;99.90;;;;;;5035545;28;20105;-70
2022/04/10 10:09:34;;;;;;;14.32;3.22;;;7.50;99.90;;;;;;5035545;28;20044;-70
2022/04/10 10:12:02;;;;;;;31.48;5.20;;;7.80;99.90;;;;;;5035740;28;20378;-70
2022/04/10 10:14:31;;;;;;;21.88;3.75;;;7.60;99.90;;;;;;5035960;28;20033;-70
2022/04/10 10:16:58;;;;;;;27.65;4.05;;;7.60;99.90;;;;;;5035336;28;20021;-69
2022/04/10 10:19:24;;;;;;;19.27;3.92;;;7.70;99.90;;;;;;5035260;28;20075;-69
2022/04/10 10:21:50;;;;;;;20.65;3.88;;;8.00;99.90;;;;;;5035538;28;20025;-69
2022/04/10 10:24:19;;;;;;;19.67;2.80;;;8.00;99.90;;;;;;5035155;28;20044;-69
2022/04/10 10:26:56;;;;;;;33.00;3.90;;;7.90;99.90;;;;;;5035205;28;20029;-69
2022/04/10 10:29:36;;;;;;;16.88;4.20;;;7.80;99.90;;;;;;5035125;28;20116;-69
2022/04/10 10:32:23;;;;;;;26.58;4.53;;;7.70;99.90;;;;;;5035426;28;20025;-69
2022/04/10 10:34:51;;;;;;;22.55;4.10;;;7.40;99.90;;;;;;5035294;28;20489;-70
2022/04/10 10:37:27;;;;;;;23.63;3.60;;;6.80;99.90;;;;;;5035028;28;20398;-69
2022/04/10 10:39:52;;;;;;;24.75;4.10;;;7.00;99.90;;;;;;5034975;28;20029;-69
2022/04/10 10:42:18;;;;;;;18.30;4.45;;;7.40;99.90;;;;;;5035112;28;20025;-69
2022/04/10 10:44:48;;;;;;;24.30;2.90;;;7.80;99.90;;;;;;5017731;28;20048;-69
2022/04/10 10:47:22;;;;;;;18.25;2.50;;;7.80;99.90;;;;;;5034919;28;20049;-70
2022/04/10 10:49:49;;;;;;;21.02;4.57;;;7.60;99.90;;;;;;5034852;28;20021;-70
2022/04/10 10:52:15;;;;;;;16.05;3.25;;;7.90;99.90;;;;;;5034690;28;20025;-70
2022/04/10 10:54:58;;;;;;;13.45;2.75;;;8.00;99.90;;;;;;5034642;28;20083;-69
2022/04/10 10:57:29;;;;;;;18.13;3.22;;;8.20;99.90;;;;;;5035009;28;20029;-70
2022/04/10 11:00:09;;;;;;;18.35;4.70;;;8.10;99.90;;;;;;5034801;28;20032;-69
2022/04/10 11:02:36;;;;;;;13.55;2.08;;;8.20;99.90;;;;;;5034515;28;20494;-70
2022/04/10 11:05:25;;;;;;;28.08;6.03;;;8.60;99.90;;;;;;5034389;28;20034;-70
2022/04/10 11:08:05;;;;;;;18.58;4.28;;;8.60;99.90;;;;;;5034533;28;20033;-70
2022/04/10 11:10:35;;;;;;;25.45;7.25;;;8.70;99.90;;;;;;5034252;28;20037;-70
2022/04/10 11:13:06;;;;;;;14.77;2.55;;;8.40;99.90;;;;;;5034812;28;20390;-69
2022/04/10 11:15:34;;;;;;;11.32;2.72;;;8.50;99.90;;;;;;5034027;28;20371;-70
2022/04/10 11:18:31;;;;;;;15.95;5.13;;;8.20;99.90;;;;;;5034496;28;20026;-70
2022/04/10 11:21:16;;;;;;;20.75;4.22;;;8.40;99.90;;;;;;5034163;28;20128;-70
2022/04/10 11:23:45;;;;;;;15.00;4.10;;;8.60;99.90;;;;;;5034672;28;20108;-70
2022/04/10 11:26:16;;;;;;;13.23;2.63;;;8.60;99.90;;;;;;5034105;28;20482;-70
2022/04/10 11:29:00;;;;;;;11.43;2.10;;;8.80;99.90;;;;;;5016224;28;20108;-69
2022/04/10 11:31:40;;;;;;;24.70;4.80;;;8.40;99.90;;;;;;5034249;28;20030;-70
2022/04/10 11:34:26;;;;;;;25.60;5.53;;;8.20;99.90;;;;;;5034255;28;20021;-70
2022/04/10 11:36:53;;;;;;;36.58;10.10;;;8.20;99.90;;;;;;5034146;28;20428;-70
2022/04/10 11:39:26;;;;;;;90.00;23.70;;;8.40;99.90;;;;;;5033771;28;20067;-70
2022/04/10 11:42:21;;;;;;;28.55;3.97;;;8.30;99.90;;;;;;5034149;28;20382;-70
2022/04/10 11:44:49;;;;;;;14.15;2.97;;;8.10;99.90;;;;;;5016776;28;20037;-69
2022/04/10 11:47:15;;;;;;;27.33;4.55;;;7.90;99.90;;;;;;5033729;28;20026;-70
2022/04/10 11:49:49;;;;;;;23.90;3.75;;;8.10;99.90;;;;;;5033622;28;20386;-70
2022/04/10 11:52:17;;;;;;;;;;;8.70;99.90;;;;;;5034374;28;20029;-70
2022/04/10 11:54:43;;;;;;;20.05;5.32;;;8.90;99.90;;;;;;5033899;28;20349;-70
2022/04/10 11:57:09;;;;;;;23.77;5.25;;;8.80;99.90;;;;;;5033473;28;20037;-70
2022/04/10 11:59:36;;;;;;;22.85;3.47;;;8.40;99.90;;;;;;5033487;28;20021;-70
2022/04/10 12:02:08;;;;;;;29.20;6.05;;;7.70;99.90;;;;;;5033533;28;20025;-70
2022/04/10 12:04:36;;;;;;;24.02;3.72;;;7.00;99.90;;;;;;5033409;28;20069;-69
2022/04/10 12:07:19;;;;;;;34.70;4.57;;;6.60;99.90;;;;;;5033691;28;20036;-70
2022/04/10 12:09:52;;;;;;;25.08;3.55;;;6.40;99.90;;;;;;5033430;28;20021;-69
2022/04/10 12:12:20;;;;;;;24.20;4.15;;;6.20;99.90;;;;;;5033434;28;20057;-69
2022/04/10 12:14:47;;;;;;;33.50;5.30;;;6.50;99.90;;;;;;5033369;28;20061;-69
2022/04/10 12:17:17;;;;;;;19.20;3.83;;;6.90;99.90;;;;;;5033331;28;20030;-69
2022/04/10 12:19:43;;;;;;;26.77;3.45;;;7.70;99.90;;;;;;5033284;28;20394;-70
2022/04/10 12:22:10;;;;;;;28.27;3.30;;;8.50;99.90;;;;;;5033576;28;20139;-69
2022/04/10 12:24:39;;;;;;;15.27;2.65;;;9.20;99.90;;;;;;5033242;28;20037;-70
2022/04/10 12:27:08;;;;;;;22.13;3.40;;;9.20;99.90;;;;;;5033250;28;20025;-69
2022/04/10 12:29:35;;;;;;;11.57;2.75;;;8.80;99.90;;;;;;5037072;28;20462;-69
2022/04/10 12:32:00;;;;;;;27.52;6.22;;;8.50;99.90;;;;;;5037640;28;20049;-69
2022/04/10 12:34:34;;;;;;;17.77;2.92;;;8.50;99.90;;;;;;5037263;28;20441;-69
2022/04/10 12:37:08;;;;;;;16.17;2.97;;;8.40;99.90;;;;;;5037285;28;20021;-70
2022/04/10 12:39:34;;;;;;;;;;;8.40;99.90;;;;;;5037712;28;20033;-70
2022/04/10 12:42:10;;;;;;;20.27;3.30;;;8.40;99.90;;;;;;5037108;28;19905;-70
2022/04/10 12:44:37;;;;;;;30.33;3.33;;;8.90;99.90;;;;;;5037040;28;20021;-70
2022/04/10 12:47:06;;;;;;;16.30;3.30;;;9.10;99.90;;;;;;5037053;28;20116;-70
2022/04/10 12:49:32;;;;;;;23.92;4.05;;;8.60;99.90;;;;;;5037026;28;20024;-69
2022/04/10 12:52:04;;;;;;;26.55;4.22;;;8.40;99.90;;;;;;5036978;28;20026;-70
2022/04/10 12:54:44;;;;;;;32.08;4.50;;;8.50;99.90;;;;;;5036946;28;20060;-70